Terminal Aerodrome Forecast
Issued by NWS Wilmington, OH

Home | Current Version | Previous Version | Text Only | Print | Product List | Glossary On
Versions: 1 2 3 4 5 6 7 8 9 10 11 12 13 14 15 16 17 18 19 20 21 22 23 24
949
FTUS41 KILN 281447 AAA
TAFDAY
TAF AMD
KDAY 281447Z 2815/2912 03010KT P6SM SCT015 BKN100
     FM281800 01013G20KT P6SM BKN040
     FM290100 02011KT P6SM SCT250=

USA.gov is the U.S. government's official web portal to all federal, state and local government web resources and services.